createdAt,value
2018-01-16T00:00:51.022Z,0
2018-01-16T00:02:00.731Z,0
2018-01-16T00:03:09.960Z,0
2018-01-16T00:04:19.676Z,0
2018-01-16T00:05:29.651Z,0
2018-01-16T00:06:39.626Z,0
2018-01-16T00:07:49.339Z,0
2018-01-16T00:08:59.367Z,0
2018-01-16T00:10:09.382Z,0
2018-01-16T00:11:19.091Z,0
2018-01-16T00:12:29.072Z,0
2018-01-16T00:13:38.786Z,0
2018-01-16T00:14:48.767Z,0
2018-01-16T00:15:58.746Z,0
2018-01-16T00:17:07.924Z,0
2018-01-16T00:18:17.639Z,0
2018-01-16T00:19:27.454Z,0
2018-01-16T00:20:37.162Z,0
2018-01-16T00:21:47.145Z,0
2018-01-16T00:22:56.594Z,0
2018-01-16T00:24:06.574Z,0
2018-01-16T00:25:16.548Z,0
2018-01-16T00:26:26.526Z,0
2018-01-16T00:27:36.238Z,0
2018-01-16T00:28:46.209Z,0
2018-01-16T00:29:56.251Z,0
2018-01-16T00:31:06.229Z,0
2018-01-16T00:32:15.676Z,0
2018-01-16T00:33:25.655Z,0
2018-01-16T00:34:35.627Z,0
2018-01-16T00:35:45.601Z,0
2018-01-16T00:36:55.315Z,0
2018-01-16T00:38:05.293Z,0
2018-01-16T00:39:14.749Z,0
2018-01-16T00:40:24.725Z,0
2018-01-16T00:41:34.442Z,0
2018-01-16T00:42:44.149Z,0
2018-01-16T00:43:53.868Z,0
2018-01-16T00:45:03.588Z,0
2018-01-16T00:46:13.296Z,0
2018-01-16T00:47:23.276Z,0
2018-01-16T00:48:33.269Z,0
2018-01-16T00:49:42.977Z,0
2018-01-16T00:50:52.691Z,0
2018-01-16T00:52:02.671Z,0
2018-01-16T00:53:12.643Z,0
2018-01-16T00:54:22.622Z,0
2018-01-16T00:55:32.597Z,0
2018-01-16T00:56:42.575Z,0
2018-01-16T00:57:52.290Z,0
2018-01-16T00:59:02.263Z,0
2018-01-16T01:00:11.762Z,0
2018-01-16T01:01:21.737Z,0
2018-01-16T01:02:31.717Z,0
2018-01-16T01:03:41.433Z,0
2018-01-16T01:04:50.618Z,0
2018-01-16T01:06:00.595Z,0
2018-01-16T01:07:09.820Z,0
2018-01-16T01:08:19.798Z,0
2018-01-16T01:09:29.512Z,0
2018-01-16T01:10:39.489Z,0
2018-01-16T01:11:49.200Z,0
2018-01-16T01:12:59.197Z,0
2018-01-16T01:14:08.913Z,0
2018-01-16T01:15:18.360Z,0
2018-01-16T01:16:28.336Z,0
2018-01-16T01:17:38.310Z,0
2018-01-16T01:18:48.028Z,0
2018-01-16T01:19:57.478Z,0
2018-01-16T01:21:07.457Z,0
2018-01-16T01:22:17.430Z,0
2018-01-16T01:23:26.977Z,0
2018-01-16T01:24:36.685Z,0
2018-01-16T01:25:46.395Z,0
2018-01-16T01:26:56.105Z,0
2018-01-16T01:28:05.816Z,0
2018-01-16T01:29:15.265Z,0
2018-01-16T01:30:25.246Z,0
2018-01-16T01:31:34.958Z,0
2018-01-16T01:32:44.933Z,0
2018-01-16T01:33:54.649Z,0
2018-01-16T01:35:04.676Z,0
2018-01-16T01:36:13.856Z,0
2018-01-16T01:37:23.831Z,0
2018-01-16T01:38:33.805Z,0
2018-01-16T01:39:43.257Z,0
2018-01-16T01:40:52.703Z,0
2018-01-16T01:42:02.416Z,0
2018-01-16T01:43:12.131Z,0
2018-01-16T01:44:22.104Z,0
2018-01-16T01:45:32.075Z,0
2018-01-16T01:46:42.049Z,0
2018-01-16T01:47:52.022Z,0
2018-01-16T01:49:01.995Z,0
2018-01-16T01:50:11.446Z,0
2018-01-16T01:51:21.420Z,0
2018-01-16T01:52:31.396Z,0
2018-01-16T01:53:41.371Z,0
2018-01-16T01:54:50.821Z,0
2018-01-16T01:56:00.536Z,0
2018-01-16T01:57:10.259Z,0
2018-01-16T01:58:19.971Z,0
2018-01-16T01:59:29.680Z,0
2018-01-16T02:00:39.652Z,0
2018-01-16T02:01:49.625Z,0
2018-01-16T02:02:59.600Z,0
2018-01-16T02:04:09.596Z,0
2018-01-16T02:05:19.315Z,0
2018-01-16T02:06:29.289Z,0
2018-01-16T02:07:38.997Z,0
2018-01-16T02:08:48.442Z,0
2018-01-16T02:09:58.415Z,0
2018-01-16T02:11:08.127Z,0
2018-01-16T02:12:17.843Z,0
2018-01-16T02:13:27.870Z,0
2018-01-16T02:14:37.901Z,0
2018-01-16T02:15:47.873Z,0
2018-01-16T02:16:57.586Z,0
2018-01-16T02:18:07.298Z,0
2018-01-16T02:19:17.310Z,0
2018-01-16T02:20:27.022Z,0
2018-01-16T02:21:36.738Z,0
2018-01-16T02:22:46.712Z,0
2018-01-16T02:23:56.687Z,0
2018-01-16T02:25:06.685Z,0
2018-01-16T02:26:16.397Z,0
2018-01-16T02:27:25.934Z,0
2018-01-16T02:28:35.911Z,0
2018-01-16T02:29:45.888Z,0
2018-01-16T02:30:55.860Z,0
2018-01-16T02:32:05.572Z,0
2018-01-16T02:33:15.286Z,0
2018-01-16T02:34:25.001Z,0
2018-01-16T02:35:34.723Z,0
2018-01-16T02:36:44.173Z,0
2018-01-16T02:37:54.150Z,0
2018-01-16T02:39:03.911Z,0
2018-01-16T02:40:13.898Z,0
2018-01-16T02:41:23.929Z,0
2018-01-16T02:42:33.641Z,0
2018-01-16T02:43:43.626Z,0
2018-01-16T02:44:53.364Z,0
2018-01-16T02:46:03.085Z,0
2018-01-16T02:47:13.079Z,0
2018-01-16T02:48:23.058Z,0
2018-01-16T02:49:33.058Z,0
2018-01-16T02:50:42.826Z,0
2018-01-16T02:51:52.806Z,0
2018-01-16T02:53:02.781Z,0
2018-01-16T02:54:12.494Z,0
2018-01-16T02:55:22.211Z,0
2018-01-16T02:56:31.922Z,0
2018-01-16T02:57:41.895Z,0
2018-01-16T02:58:51.872Z,0
2018-01-16T03:00:01.846Z,0
2018-01-16T03:01:11.828Z,0
2018-01-16T03:02:21.540Z,0
2018-01-16T03:03:31.520Z,0
2018-01-16T03:04:41.232Z,0
2018-01-16T03:05:50.937Z,0
2018-01-16T03:07:00.645Z,0
2018-01-16T03:08:10.773Z,0
2018-01-16T03:09:20.750Z,0
2018-01-16T03:10:30.459Z,0
2018-01-16T03:11:40.174Z,0
2018-01-16T03:12:49.885Z,0
2018-01-16T03:13:59.912Z,0
2018-01-16T03:15:09.628Z,0
2018-01-16T03:16:19.609Z,0
2018-01-16T03:17:29.374Z,0
2018-01-16T03:18:39.358Z,0
2018-01-16T03:19:48.804Z,0
2018-01-16T03:20:58.776Z,0
2018-01-16T03:22:08.750Z,0
2018-01-16T03:23:18.456Z,0
2018-01-16T03:24:28.486Z,0
2018-01-16T03:25:38.467Z,0
2018-01-16T03:26:48.447Z,0
2018-01-16T03:27:58.155Z,0
2018-01-16T03:29:08.134Z,0
2018-01-16T03:30:18.118Z,0
2018-01-16T03:31:28.111Z,0
2018-01-16T03:32:37.826Z,0
2018-01-16T03:33:47.803Z,0
2018-01-16T03:34:57.513Z,0
2018-01-16T03:36:07.486Z,0
2018-01-16T03:37:16.987Z,0
2018-01-16T03:38:26.974Z,0
2018-01-16T03:39:36.684Z,0
2018-01-16T03:40:46.132Z,0
2018-01-16T03:41:55.850Z,0
2018-01-16T03:43:05.823Z,0
2018-01-16T03:44:15.531Z,0
2018-01-16T03:45:25.244Z,0
2018-01-16T03:46:35.220Z,0
2018-01-16T03:47:45.200Z,0
2018-01-16T03:48:55.238Z,0
2018-01-16T03:50:05.210Z,0
2018-01-16T03:51:14.927Z,0
2018-01-16T03:52:24.906Z,0
2018-01-16T03:53:34.881Z,0
2018-01-16T03:54:44.643Z,0
2018-01-16T03:55:54.087Z,0
2018-01-16T03:57:04.068Z,0
2018-01-16T03:58:14.044Z,0
2018-01-16T03:59:23.756Z,0
2018-01-16T04:03:30.344Z,0
2018-01-16T04:04:40.316Z,0
2018-01-16T04:05:50.027Z,0
2018-01-16T04:07:00.008Z,0
2018-01-16T04:08:09.717Z,0
2018-01-16T04:09:19.165Z,0
2018-01-16T04:10:29.143Z,0
2018-01-16T04:11:39.118Z,0
2018-01-16T04:12:49.090Z,0
2018-01-16T04:13:58.802Z,0
2018-01-16T04:15:08.782Z,0
2018-01-16T04:16:18.491Z,0
2018-01-16T04:17:28.465Z,0
2018-01-16T04:18:38.442Z,0
2018-01-16T04:19:48.154Z,0
2018-01-16T04:20:57.862Z,0
2018-01-16T04:22:07.834Z,0
2018-01-16T04:23:17.542Z,0
2018-01-16T04:24:27.250Z,0
2018-01-16T04:25:37.225Z,0
2018-01-16T04:26:47.198Z,0
2018-01-16T04:27:56.378Z,0
2018-01-16T04:29:06.353Z,0
2018-01-16T04:30:15.539Z,0
2018-01-16T04:31:25.255Z,0
2018-01-16T04:32:35.234Z,0
2018-01-16T04:33:44.942Z,0
2018-01-16T04:34:54.926Z,0
2018-01-16T04:36:04.640Z,0
2018-01-16T04:37:14.350Z,0
2018-01-16T04:38:24.427Z,0
2018-01-16T04:39:34.140Z,0
2018-01-16T04:40:43.849Z,0
2018-01-16T04:41:53.297Z,0
2018-01-16T04:43:03.273Z,0
2018-01-16T04:44:13.244Z,0
2018-01-16T04:45:23.224Z,0
2018-01-16T04:46:32.934Z,0
2018-01-16T04:47:42.913Z,0
2018-01-16T04:48:52.893Z,0
2018-01-16T04:50:02.604Z,0
2018-01-16T04:51:12.577Z,0
2018-01-16T04:52:22.291Z,0
2018-01-16T04:53:32.002Z,0
2018-01-16T04:54:41.978Z,0
2018-01-16T04:55:51.427Z,0
2018-01-16T04:57:01.442Z,0
2018-01-16T04:58:11.425Z,0
2018-01-16T04:59:20.925Z,0
2018-01-16T05:00:30.898Z,0
2018-01-16T05:01:40.656Z,0
2018-01-16T05:02:50.641Z,0
2018-01-16T05:04:00.093Z,0
2018-01-16T05:05:10.108Z,0
2018-01-16T05:06:19.818Z,0
2018-01-16T05:07:30.193Z,0
2018-01-16T05:08:39.637Z,0
2018-01-16T05:09:49.353Z,0
2018-01-16T05:10:58.789Z,0
2018-01-16T05:12:08.502Z,0
2018-01-16T05:13:18.490Z,0
2018-01-16T05:14:28.462Z,0
2018-01-16T05:15:37.909Z,0
2018-01-16T05:16:47.625Z,0
2018-01-16T05:17:57.078Z,0
2018-01-16T05:19:07.220Z,0
2018-01-16T05:20:17.193Z,0
2018-01-16T05:21:27.167Z,0
2018-01-16T05:22:36.874Z,0
2018-01-16T05:23:46.850Z,0
2018-01-16T05:24:56.825Z,0
2018-01-16T05:26:06.537Z,0
2018-01-16T05:27:16.513Z,0
2018-01-16T05:28:26.228Z,0
2018-01-16T05:29:36.201Z,0
2018-01-16T05:30:46.230Z,0
2018-01-16T05:31:56.206Z,0
2018-01-16T05:33:06.179Z,0
2018-01-16T05:34:16.150Z,0
2018-01-16T05:35:25.863Z,0
2018-01-16T05:36:35.839Z,0
2018-01-16T05:37:45.814Z,0
2018-01-16T05:38:55.786Z,0
2018-01-16T05:40:05.530Z,0
2018-01-16T05:41:15.243Z,0
2018-01-16T05:42:25.274Z,0
2018-01-16T05:43:35.293Z,0
2018-01-16T05:44:45.273Z,0
2018-01-16T05:45:54.981Z,0
2018-01-16T05:47:04.956Z,0
2018-01-16T05:48:14.676Z,0
2018-01-16T05:49:24.392Z,0
2018-01-16T05:50:34.098Z,0
2018-01-16T05:51:44.076Z,0
2018-01-16T05:52:53.787Z,0
2018-01-16T05:54:03.779Z,0
2018-01-16T05:55:13.761Z,0
2018-01-16T05:56:23.737Z,0
2018-01-16T05:57:33.723Z,0
2018-01-16T05:58:43.701Z,0
2018-01-16T05:59:53.673Z,0
2018-01-16T06:01:03.653Z,0
2018-01-16T06:02:13.364Z,0
2018-01-16T06:03:22.812Z,0
2018-01-16T06:04:31.996Z,0
2018-01-16T06:05:41.703Z,0
2018-01-16T06:06:51.421Z,0
2018-01-16T06:08:01.131Z,0
2018-01-16T06:09:10.843Z,0
2018-01-16T06:10:20.291Z,0
2018-01-16T06:11:30.375Z,0
2018-01-16T06:12:40.346Z,0
2018-01-16T06:13:50.060Z,0
2018-01-16T06:14:59.777Z,0
2018-01-16T06:16:09.753Z,0
2018-01-16T06:17:19.469Z,0
2018-01-16T06:18:29.182Z,0
2018-01-16T06:19:39.162Z,0
2018-01-16T06:20:48.879Z,0
2018-01-16T06:21:58.604Z,0
2018-01-16T06:23:08.582Z,0
2018-01-16T06:24:18.291Z,0
2018-01-16T06:25:28.265Z,0
2018-01-16T06:26:38.294Z,0
2018-01-16T06:27:48.004Z,0
2018-01-16T06:28:57.762Z,0
2018-01-16T06:30:07.474Z,0
2018-01-16T06:31:17.447Z,0
2018-01-16T06:32:27.421Z,0
2018-01-16T06:33:37.392Z,0
2018-01-16T06:34:47.104Z,0
2018-01-16T06:35:56.816Z,0
2018-01-16T06:37:06.529Z,0
2018-01-16T06:38:16.507Z,0
2018-01-16T06:39:26.217Z,0
2018-01-16T06:40:36.244Z,0
2018-01-16T06:41:45.688Z,0
2018-01-16T06:42:55.668Z,0
2018-01-16T06:44:05.643Z,0
2018-01-16T06:45:15.352Z,0
2018-01-16T06:46:24.799Z,0
2018-01-16T06:47:34.849Z,0
2018-01-16T06:48:44.825Z,0
2018-01-16T06:49:54.804Z,0
2018-01-16T06:51:04.796Z,0
2018-01-16T06:52:13.977Z,0
2018-01-16T06:53:23.425Z,0
2018-01-16T06:54:32.875Z,0
2018-01-16T06:55:42.860Z,0
2018-01-16T06:56:52.568Z,0
2018-01-16T06:58:02.278Z,0
2018-01-16T06:59:12.256Z,0
2018-01-16T07:00:21.980Z,0
2018-01-16T07:01:31.956Z,0
2018-01-16T07:02:41.666Z,0
2018-01-16T07:03:51.642Z,0
2018-01-16T07:05:01.617Z,0
2018-01-16T07:06:11.601Z,0
2018-01-16T07:07:21.576Z,0
2018-01-16T07:08:31.553Z,0
2018-01-16T07:09:41.363Z,0
2018-01-16T07:10:50.813Z,0
2018-01-16T07:12:00.800Z,0
2018-01-16T07:13:10.775Z,0
2018-01-16T07:14:20.747Z,0
2018-01-16T07:15:30.824Z,0
2018-01-16T07:16:40.810Z,0
2018-01-16T07:17:50.520Z,0
2018-01-16T07:19:00.231Z,0
2018-01-16T07:20:09.939Z,0
2018-01-16T07:21:19.655Z,0
2018-01-16T07:22:29.674Z,0
2018-01-16T07:23:39.082Z,0
2018-01-16T07:24:48.535Z,0
2018-01-16T07:25:58.542Z,0
2018-01-16T07:27:08.523Z,0
2018-01-16T07:28:18.498Z,0
2018-01-16T07:29:28.472Z,0
2018-01-16T07:30:38.190Z,0
2018-01-16T07:31:48.167Z,0
2018-01-16T07:32:57.615Z,0
2018-01-16T07:34:07.602Z,0
2018-01-16T07:35:17.312Z,0
2018-01-16T07:36:27.286Z,0
2018-01-16T07:37:36.998Z,0
2018-01-16T07:38:46.978Z,0
2018-01-16T07:39:56.703Z,0
2018-01-16T07:41:06.682Z,0
2018-01-16T07:42:16.423Z,0
2018-01-16T07:43:26.138Z,0
2018-01-16T07:44:35.636Z,0
2018-01-16T07:45:45.346Z,0
2018-01-16T07:46:55.067Z,0
2018-01-16T07:48:04.514Z,0
2018-01-16T07:49:14.491Z,0
2018-01-16T07:50:24.207Z,0
2018-01-16T07:51:34.185Z,0
2018-01-16T07:52:43.896Z,0
2018-01-16T07:53:53.873Z,0
2018-01-16T07:55:03.846Z,0
2018-01-16T07:56:13.821Z,0
2018-01-16T07:57:23.790Z,0
2018-01-16T07:58:33.770Z,0
2018-01-16T07:59:43.496Z,0
2018-01-16T08:00:53.472Z,0
2018-01-16T08:02:02.972Z,0
2018-01-16T08:03:12.951Z,0
2018-01-16T08:04:22.920Z,0
2018-01-16T08:05:32.893Z,0
2018-01-16T08:06:42.870Z,0
2018-01-16T08:07:52.316Z,5
2018-01-16T08:09:02.291Z,5
2018-01-16T08:10:11.734Z,5
2018-01-16T08:11:21.443Z,5
2018-01-16T08:12:31.419Z,5
2018-01-16T08:13:41.184Z,5
2018-01-16T08:14:51.157Z,5
2018-01-16T08:16:01.128Z,5
2018-01-16T08:17:11.114Z,5
2018-01-16T08:18:20.829Z,5
2018-01-16T08:19:30.813Z,5
2018-01-16T08:20:40.787Z,10
2018-01-16T08:21:50.491Z,10
2018-01-16T08:23:00.203Z,10
2018-01-16T08:24:09.920Z,10
2018-01-16T08:25:19.894Z,10
2018-01-16T08:26:29.873Z,10
2018-01-16T08:27:39.842Z,10
2018-01-16T08:28:49.555Z,10
2018-01-16T08:29:59.261Z,10
2018-01-16T08:31:08.711Z,10
2018-01-16T08:32:17.897Z,10
2018-01-16T08:33:27.866Z,10
2018-01-16T08:34:37.837Z,10
2018-01-16T08:35:47.284Z,15
2018-01-16T08:36:56.994Z,15
2018-01-16T08:38:06.732Z,15
2018-01-16T08:39:16.731Z,15
2018-01-16T08:40:26.710Z,15
2018-01-16T08:41:36.424Z,15
2018-01-16T08:42:46.184Z,15
2018-01-16T08:43:55.894Z,15
2018-01-16T08:45:05.605Z,20
2018-01-16T08:46:15.057Z,20
2018-01-16T08:47:25.072Z,20
2018-01-16T08:48:34.779Z,20
2018-01-16T08:49:44.492Z,20
2018-01-16T08:50:54.463Z,20
2018-01-16T08:52:04.441Z,25
2018-01-16T08:53:14.416Z,25
2018-01-16T08:54:23.604Z,25
2018-01-16T08:55:33.578Z,30
2018-01-16T08:56:43.573Z,30
2018-01-16T08:57:53.021Z,30
2018-01-16T08:59:03.039Z,30
2018-01-16T09:00:12.758Z,30
2018-01-16T09:01:22.208Z,30
2018-01-16T09:02:32.189Z,35
2018-01-16T09:03:42.164Z,35
2018-01-16T09:04:51.874Z,35
2018-01-16T09:06:01.690Z,40
2018-01-16T09:07:11.406Z,40
2018-01-16T09:08:21.387Z,45
2018-01-16T09:09:31.363Z,45
2018-01-16T09:10:41.119Z,50
2018-01-16T09:11:50.828Z,45
2018-01-16T09:13:00.397Z,45
2018-01-16T09:14:10.107Z,45
2018-01-16T09:15:20.086Z,45
2018-01-16T09:16:29.798Z,45
2018-01-16T09:17:39.515Z,45
2018-01-16T09:18:49.490Z,45
2018-01-16T09:19:58.935Z,45
2018-01-16T09:21:08.652Z,45
2018-01-16T09:22:18.364Z,45
2018-01-16T09:23:28.075Z,45
2018-01-16T09:24:37.791Z,45
2018-01-16T09:25:47.766Z,40
2018-01-16T09:26:57.483Z,40
2018-01-16T09:28:07.195Z,40
2018-01-16T09:29:17.234Z,45
2018-01-16T09:30:27.212Z,45
2018-01-16T09:31:36.929Z,45
2018-01-16T09:32:46.644Z,45
2018-01-16T09:33:56.625Z,45
2018-01-16T09:35:06.341Z,45
2018-01-16T09:36:15.538Z,45
2018-01-16T09:37:24.990Z,40
2018-01-16T09:38:34.712Z,45
2018-01-16T09:39:44.688Z,45
2018-01-16T09:40:54.663Z,40
2018-01-16T09:42:04.380Z,40
2018-01-16T09:43:14.095Z,40
2018-01-16T09:44:24.072Z,35
2018-01-16T09:45:34.056Z,35
2018-01-16T09:46:45.028Z,35
2018-01-16T09:47:54.478Z,35
2018-01-16T09:49:03.945Z,35
2018-01-16T09:50:13.414Z,35
2018-01-16T09:51:23.129Z,30
2018-01-16T09:52:32.837Z,30
2018-01-16T09:53:42.830Z,35
2018-01-16T09:54:52.814Z,35
2018-01-16T09:56:02.799Z,40
2018-01-16T09:57:12.783Z,40
2018-01-16T09:58:22.597Z,40
2018-01-16T09:59:32.313Z,45
2018-01-16T10:00:42.294Z,45
2018-01-16T10:01:52.276Z,45
2018-01-16T10:03:02.251Z,45
2018-01-16T10:04:11.963Z,50
2018-01-16T10:05:21.938Z,50
2018-01-16T10:06:31.917Z,50
2018-01-16T10:07:42.044Z,45
2018-01-16T10:08:51.764Z,50
2018-01-16T10:10:01.580Z,50
2018-01-16T10:11:11.296Z,50
2018-01-16T10:12:21.277Z,50
2018-01-16T10:13:30.989Z,50
2018-01-16T10:14:40.718Z,55
2018-01-16T10:15:50.004Z,55
2018-01-16T10:16:59.718Z,55
2018-01-16T10:18:09.431Z,55
2018-01-16T10:19:19.149Z,55
2018-01-16T10:20:28.860Z,50
2018-01-16T10:21:38.580Z,55
2018-01-16T10:22:48.300Z,55
2018-01-16T10:23:58.010Z,55
2018-01-16T10:25:07.986Z,50
2018-01-16T10:26:17.697Z,55
2018-01-16T10:27:27.145Z,55
2018-01-16T10:28:37.127Z,50
2018-01-16T10:29:46.840Z,50
2018-01-16T10:30:56.832Z,55
2018-01-16T10:32:06.809Z,55
2018-01-16T10:33:16.046Z,60
2018-01-16T10:34:25.516Z,65
2018-01-16T10:35:35.230Z,70
2018-01-16T10:36:45.209Z,70
2018-01-16T10:37:55.195Z,75
2018-01-16T10:39:05.178Z,75
2018-01-16T10:40:15.158Z,80
2018-01-16T10:41:25.245Z,80
2018-01-16T10:42:35.217Z,85
2018-01-16T10:43:44.933Z,85
2018-01-16T10:44:54.914Z,90
2018-01-16T10:46:04.889Z,85
2018-01-16T10:47:14.600Z,90
2018-01-16T10:48:24.576Z,95
2018-01-16T10:49:34.288Z,100
2018-01-16T10:50:43.744Z,100
2018-01-16T10:51:53.722Z,110
2018-01-16T10:53:03.437Z,125
2018-01-16T10:54:13.156Z,120
2018-01-16T10:55:22.605Z,120
2018-01-16T10:56:32.687Z,115
2018-01-16T10:57:42.662Z,110
2018-01-16T10:58:52.638Z,105
2018-01-16T11:00:02.089Z,105
2018-01-16T11:01:12.065Z,105
2018-01-16T11:02:21.776Z,105
2018-01-16T11:03:31.756Z,105
2018-01-16T11:04:41.736Z,100
2018-01-16T11:05:51.714Z,105
2018-01-16T11:07:01.693Z,100
2018-01-16T11:08:11.513Z,105
2018-01-16T11:09:21.226Z,95
2018-01-16T11:10:31.197Z,90
2018-01-16T11:11:40.918Z,90
2018-01-16T11:12:50.631Z,85
2018-01-16T11:14:00.607Z,85
2018-01-16T11:15:10.321Z,85
2018-01-16T11:16:20.038Z,80
2018-01-16T11:17:30.015Z,80
2018-01-16T11:18:39.466Z,75
2018-01-16T11:19:49.444Z,80
2018-01-16T11:20:59.421Z,80
2018-01-16T11:22:08.869Z,75
2018-01-16T11:23:18.845Z,75
2018-01-16T11:24:28.552Z,70
2018-01-16T11:25:38.264Z,65
2018-01-16T11:26:48.245Z,60
2018-01-16T11:27:57.958Z,60
2018-01-16T11:29:07.676Z,65
2018-01-16T11:30:17.653Z,70
2018-01-16T11:31:27.418Z,65
2018-01-16T11:32:37.144Z,60
2018-01-16T11:33:47.130Z,65
2018-01-16T11:34:56.841Z,60
2018-01-16T11:36:06.877Z,65
2018-01-16T11:37:16.854Z,60
2018-01-16T11:38:26.303Z,60
2018-01-16T11:39:36.283Z,65
2018-01-16T11:40:45.993Z,60
2018-01-16T11:41:55.974Z,65
2018-01-16T11:43:05.734Z,65
2018-01-16T11:44:14.919Z,65
2018-01-16T11:45:24.895Z,70
2018-01-16T11:46:34.607Z,75
2018-01-16T11:47:44.321Z,75
2018-01-16T11:48:53.768Z,75
2018-01-16T11:50:03.483Z,75
2018-01-16T11:51:13.203Z,65
2018-01-16T11:52:22.917Z,65
2018-01-16T11:53:32.900Z,65
2018-01-16T11:54:42.882Z,60
2018-01-16T11:55:52.915Z,65
2018-01-16T11:57:02.897Z,55
2018-01-16T11:58:12.883Z,55
2018-01-16T11:59:22.858Z,60
2018-01-16T12:00:32.846Z,55
2018-01-16T12:01:42.836Z,50
2018-01-16T12:02:52.279Z,60
2018-01-16T12:04:02.254Z,60
2018-01-16T12:05:11.969Z,55
2018-01-16T12:06:21.952Z,50
2018-01-16T12:07:31.666Z,55
2018-01-16T12:08:41.649Z,60
2018-01-16T12:09:51.404Z,55
2018-01-16T12:11:01.382Z,45
2018-01-16T12:12:11.374Z,50
2018-01-16T12:13:21.090Z,55
2018-01-16T12:14:31.069Z,50
2018-01-16T12:15:41.051Z,50
2018-01-16T12:16:50.769Z,45
2018-01-16T12:18:00.489Z,50
2018-01-16T12:19:10.274Z,50
2018-01-16T12:20:19.985Z,45
2018-01-16T12:21:29.961Z,50
2018-01-16T12:22:39.982Z,55
2018-01-16T12:23:50.004Z,50
2018-01-16T12:24:59.770Z,50
2018-01-16T12:26:09.226Z,50
2018-01-16T12:27:18.936Z,50
2018-01-16T12:28:28.656Z,40
2018-01-16T12:29:38.636Z,50
2018-01-16T12:30:48.620Z,55
2018-01-16T12:31:58.073Z,45
2018-01-16T12:33:08.054Z,40
2018-01-16T12:34:18.035Z,50
2018-01-16T12:35:28.014Z,50
2018-01-16T12:36:38.009Z,50
2018-01-16T12:37:47.983Z,40
2018-01-16T12:38:57.969Z,45
2018-01-16T12:40:07.695Z,45
2018-01-16T12:41:17.671Z,40
2018-01-16T12:42:27.391Z,35
2018-01-16T12:43:37.382Z,35
2018-01-16T12:44:47.097Z,40
2018-01-16T12:45:56.546Z,40
2018-01-16T12:47:06.529Z,50
2018-01-16T12:48:16.247Z,45
2018-01-16T12:49:26.229Z,50
2018-01-16T12:50:35.943Z,50
2018-01-16T12:51:45.128Z,55
2018-01-16T12:52:55.103Z,60
2018-01-16T12:54:05.093Z,60
2018-01-16T12:55:15.072Z,60
2018-01-16T12:56:24.793Z,60
2018-01-16T12:57:34.510Z,65
2018-01-16T12:58:43.963Z,65
2018-01-16T12:59:53.945Z,75
2018-01-16T13:01:03.667Z,70
2018-01-16T13:02:13.378Z,75
2018-01-16T13:03:23.361Z,65
2018-01-16T13:04:33.093Z,70
2018-01-16T13:05:42.541Z,65
2018-01-16T13:06:52.516Z,60
2018-01-16T13:08:02.497Z,65
2018-01-16T13:09:12.478Z,65
2018-01-16T13:10:22.505Z,65
2018-01-16T13:11:32.214Z,55
2018-01-16T13:12:42.191Z,55
2018-01-16T13:13:51.910Z,55
2018-01-16T13:15:01.889Z,50
2018-01-16T13:16:11.604Z,45
2018-01-16T13:17:21.318Z,45
2018-01-16T13:18:30.768Z,55
2018-01-16T13:19:40.478Z,50
2018-01-16T13:20:50.190Z,50
2018-01-16T13:21:59.683Z,50
2018-01-16T13:23:09.665Z,50
2018-01-16T13:24:19.654Z,60
2018-01-16T13:25:29.639Z,65
2018-01-16T13:26:39.625Z,65
2018-01-16T13:27:49.437Z,65
2018-01-16T13:28:59.412Z,60
2018-01-16T13:30:09.414Z,60
2018-01-16T13:31:19.393Z,60
2018-01-16T13:32:29.438Z,60
2018-01-16T13:33:39.802Z,50
2018-01-16T13:34:49.519Z,50
2018-01-16T13:35:59.536Z,50
2018-01-16T13:37:09.254Z,45
2018-01-16T13:38:19.228Z,45
2018-01-16T13:39:29.209Z,45
2018-01-16T13:40:39.187Z,50
2018-01-16T13:41:49.167Z,50
2018-01-16T13:42:59.146Z,45
2018-01-16T13:44:08.871Z,50
2018-01-16T13:45:18.586Z,50
2018-01-16T13:46:28.322Z,45
2018-01-16T13:47:37.497Z,40
2018-01-16T13:48:47.478Z,40
2018-01-16T13:49:56.932Z,40
2018-01-16T13:51:07.014Z,40
2018-01-16T13:52:16.992Z,40
2018-01-16T13:53:26.706Z,40
2018-01-16T13:54:36.420Z,40
2018-01-16T13:55:46.404Z,40
2018-01-16T13:56:56.385Z,40
2018-01-16T13:58:06.425Z,40
2018-01-16T13:59:15.876Z,35
2018-01-16T14:00:25.593Z,35
2018-01-16T14:01:35.570Z,35
2018-01-16T14:02:45.562Z,35
2018-01-16T14:03:55.279Z,35
2018-01-16T14:05:04.749Z,35
2018-01-16T14:06:14.477Z,30
2018-01-16T14:07:24.191Z,30
2018-01-16T14:08:34.221Z,30
2018-01-16T14:09:44.206Z,25
2018-01-16T14:10:53.921Z,25
2018-01-16T14:12:03.904Z,25
2018-01-16T14:13:13.885Z,20
2018-01-16T14:14:23.962Z,20
2018-01-16T14:15:33.938Z,20
2018-01-16T14:16:43.658Z,20
2018-01-16T14:17:53.374Z,20
2018-01-16T14:19:03.094Z,15
2018-01-16T14:20:12.810Z,15
2018-01-16T14:21:22.795Z,15
2018-01-16T14:22:32.776Z,15
2018-01-16T14:23:42.494Z,15
2018-01-16T14:24:52.208Z,15
2018-01-16T14:26:01.921Z,15
2018-01-16T14:27:11.931Z,15
2018-01-16T14:28:21.968Z,15
2018-01-16T14:29:31.950Z,15
2018-01-16T14:30:41.664Z,15
2018-01-16T14:31:51.378Z,10
2018-01-16T14:33:01.353Z,10
2018-01-16T14:34:11.331Z,10
2018-01-16T14:35:21.314Z,10
2018-01-16T14:36:30.761Z,10
2018-01-16T14:37:40.489Z,10
2018-01-16T14:38:50.470Z,10
2018-01-16T14:39:59.924Z,10
2018-01-16T14:41:09.637Z,10
2018-01-16T14:42:19.090Z,10
2018-01-16T14:43:28.857Z,10
2018-01-16T14:44:38.580Z,10
2018-01-16T14:45:48.558Z,10
2018-01-16T14:46:58.544Z,5
2018-01-16T14:48:08.312Z,5
2018-01-16T14:49:18.026Z,5
2018-01-16T14:50:27.740Z,5
2018-01-16T14:51:37.728Z,5
2018-01-16T14:52:47.465Z,5
2018-01-16T14:53:56.942Z,5
2018-01-16T14:55:06.654Z,5
2018-01-16T14:56:16.637Z,5
2018-01-16T14:57:26.355Z,5
2018-01-16T14:58:36.063Z,5
2018-01-16T14:59:45.511Z,5
2018-01-16T15:00:55.814Z,5
2018-01-16T15:02:05.535Z,0
2018-01-16T15:03:15.513Z,0
2018-01-16T15:04:24.961Z,0
2018-01-16T15:05:34.672Z,0
2018-01-16T15:06:44.790Z,0
2018-01-16T15:07:54.508Z,0
2018-01-16T15:09:04.486Z,0
2018-01-16T15:10:14.213Z,0
2018-01-16T15:11:23.925Z,0
2018-01-16T15:12:33.635Z,0
2018-01-16T15:13:43.353Z,0
2018-01-16T15:14:52.798Z,0
2018-01-16T15:16:01.985Z,0
2018-01-16T15:17:11.748Z,0
2018-01-16T15:18:21.726Z,0
2018-01-16T15:19:31.436Z,0
2018-01-16T15:20:41.420Z,0
2018-01-16T15:21:51.399Z,0
2018-01-16T15:23:01.378Z,0
2018-01-16T15:24:11.196Z,0
2018-01-16T15:25:21.175Z,0
2018-01-16T15:26:31.312Z,0
2018-01-16T15:27:41.292Z,0
2018-01-16T15:28:50.740Z,0
2018-01-16T15:30:00.506Z,0
2018-01-16T15:31:10.567Z,0
2018-01-16T15:32:20.291Z,0
2018-01-16T15:33:30.009Z,0
2018-01-16T15:34:39.993Z,0
2018-01-16T15:35:49.969Z,0
2018-01-16T15:36:59.943Z,0
2018-01-16T15:38:09.661Z,0
2018-01-16T15:39:19.108Z,0
2018-01-16T15:40:29.085Z,0
2018-01-16T15:41:38.796Z,0
2018-01-16T15:42:48.506Z,0
2018-01-16T15:43:58.227Z,0
2018-01-16T15:45:07.943Z,0
2018-01-16T15:46:17.919Z,0
2018-01-16T15:47:27.897Z,0
2018-01-16T15:48:37.873Z,0
2018-01-16T15:49:47.849Z,0
2018-01-16T15:50:57.564Z,0
2018-01-16T15:52:07.543Z,0
2018-01-16T15:53:17.570Z,0
2018-01-16T15:54:27.557Z,0
2018-01-16T15:55:37.539Z,0
2018-01-16T15:56:47.255Z,0
2018-01-16T15:57:56.977Z,0
2018-01-16T15:59:06.703Z,0
2018-01-16T16:00:16.682Z,0
2018-01-16T16:01:26.660Z,0
2018-01-16T16:02:36.639Z,0
2018-01-16T16:03:46.090Z,0
2018-01-16T16:04:55.799Z,0
2018-01-16T16:06:05.779Z,0
2018-01-16T16:07:15.550Z,0
2018-01-16T16:08:25.529Z,0
2018-01-16T16:09:35.507Z,0
2018-01-16T16:10:45.483Z,0
2018-01-16T16:11:55.465Z,0
2018-01-16T16:13:05.188Z,0
2018-01-16T16:17:39.027Z,0
2018-01-16T16:18:49.006Z,0
2018-01-16T16:19:58.725Z,0
2018-01-16T16:21:08.175Z,0
2018-01-16T16:22:18.158Z,0
2018-01-16T16:23:28.139Z,0
2018-01-16T16:24:38.115Z,0
2018-01-16T16:25:48.101Z,0
2018-01-16T16:26:58.074Z,0
2018-01-16T16:28:08.063Z,0
2018-01-16T16:29:18.142Z,0
2018-01-16T16:30:27.855Z,0
2018-01-16T16:31:37.305Z,0
2018-01-16T16:32:47.286Z,0
2018-01-16T16:33:56.996Z,0
2018-01-16T16:35:06.972Z,0
2018-01-16T16:36:16.682Z,0
2018-01-16T16:37:26.657Z,0
2018-01-16T16:38:36.635Z,0
2018-01-16T16:39:46.083Z,0
2018-01-16T16:40:56.110Z,0
2018-01-16T16:42:05.824Z,0
2018-01-16T16:43:15.009Z,0
2018-01-16T16:44:24.724Z,0
2018-01-16T16:45:34.442Z,0
2018-01-16T16:46:44.418Z,0
2018-01-16T16:47:54.406Z,0
2018-01-16T16:49:04.391Z,0
2018-01-16T16:50:14.373Z,0
2018-01-16T16:51:24.353Z,0
2018-01-16T16:52:34.064Z,0
2018-01-16T16:53:44.093Z,0
2018-01-16T16:54:53.822Z,0
2018-01-16T16:56:03.808Z,0
2018-01-16T16:57:13.792Z,0
2018-01-16T16:58:23.768Z,0
2018-01-16T16:59:33.481Z,0
2018-01-16T17:00:43.461Z,0
2018-01-16T17:01:53.436Z,0
2018-01-16T17:03:03.415Z,0
2018-01-16T17:04:13.444Z,0